Time;durP1;ratioP1;P1;durP2;ratioP2;P2;SDS_P1;SDS_P2;PMS_P1;PMS_P2;Temp;Humidity;BMP_temperature;BMP_pressure;BME280_temperature;BME280_humidity;BME280_pressure;Samples;Min_cycle;Max_cycle;Signal;HPM_P1;HPM_P2
2021/05/27 00:01:24;;;;;;;10.20;4.55;;;;;;;17.97;42.74;101328.34;4176289;28;20106;-45
2021/05/27 00:03:24;;;;;;;5.63;3.45;;;;;;;17.91;42.66;101287.03;4177815;28;20036;-47
2021/05/27 00:05:25;;;;;;;8.75;3.75;;;;;;;18.15;42.57;101335.47;4180629;28;20037;-45
2021/05/27 00:07:25;;;;;;;10.48;3.38;;;;;;;17.95;42.82;101338.88;4176879;28;20176;-45
2021/05/27 00:09:26;;;;;;;9.68;4.00;;;;;;;18.06;42.75;101336.19;4175627;28;20041;-44
2021/05/27 00:11:26;;;;;;;10.77;3.95;;;;;;;18.14;42.48;101308.84;4175259;28;20033;-44
2021/05/27 00:13:27;;;;;;;5.40;3.25;;;;;;;18.04;42.56;101333.69;4173805;28;20033;-44
2021/05/27 00:15:30;;;;;;;7.82;3.35;;;;;;;17.97;42.94;101327.53;4178205;28;20036;-47
2021/05/27 00:17:30;;;;;;;12.23;3.97;;;;;;;18.09;42.66;101333.75;4175546;28;20033;-49
2021/05/27 00:19:31;;;;;;;9.77;3.78;;;;;;;17.93;42.99;101334.69;4177557;28;20506;-44
2021/05/27 00:21:31;;;;;;;8.52;3.80;;;;;;;17.85;42.99;101335.97;4173848;28;20029;-42
2021/05/27 00:23:31;;;;;;;8.07;3.75;;;;;;;18.11;42.54;101342.63;4175258;28;20429;-44
2021/05/27 00:25:32;;;;;;;6.00;3.30;;;;;;;18.02;42.87;101344.19;4171746;28;20037;-43
2021/05/27 00:27:32;;;;;;;7.72;3.42;;;;;;;18.04;42.87;101336.44;4175065;28;20072;-44
2021/05/27 00:29:33;;;;;;;8.85;3.92;;;;;;;18.00;42.81;101346.41;4175069;28;20483;-44
2021/05/27 00:31:34;;;;;;;7.63;3.72;;;;;;;17.78;42.93;101330.66;4175244;28;20045;-44
2021/05/27 00:33:34;;;;;;;9.63;4.15;;;;;;;17.87;42.87;101352.34;4157679;28;20392;-43
2021/05/27 00:35:35;;;;;;;6.85;3.22;;;;;;;17.94;43.00;101352.97;4172260;28;20040;-43
2021/05/27 00:37:36;;;;;;;9.38;3.67;;;;;;;17.70;43.09;101353.25;4174229;28;20470;-46
2021/05/27 00:39:36;;;;;;;7.45;3.47;;;;;;;17.91;42.87;101354.31;4173781;28;20052;-44
2021/05/27 00:41:37;;;;;;;10.23;3.83;;;;;;;17.97;42.71;101346.91;4173862;28;20049;-46
2021/05/27 00:43:37;;;;;;;6.78;3.03;;;;;;;18.04;42.64;101364.16;4174765;28;20029;-45
2021/05/27 00:45:37;;;;;;;11.13;3.65;;;;;;;17.75;43.05;101352.47;4172208;28;21047;-45
2021/05/27 00:47:39;;;;;;;6.95;4.13;;;;;;;17.61;43.38;101363.09;4174379;28;20262;-45
2021/05/27 00:49:40;;;;;;;8.30;3.72;;;;;;;17.85;42.86;101357.31;4176123;28;20029;-44
2021/05/27 00:51:42;;;;;;;9.38;3.92;;;;;;;17.52;43.45;101351.66;4172865;28;20113;-46
2021/05/27 00:53:42;;;;;;;8.10;3.42;;;;;;;17.81;42.85;101359.72;4176014;28;20098;-45
2021/05/27 00:55:43;;;;;;;8.82;3.60;;;;;;;17.91;42.58;101365.41;4174883;28;20037;-44
2021/05/27 00:57:43;;;;;;;8.50;3.80;;;;;;;17.62;43.21;101362.00;4168910;28;20398;-46
2021/05/27 00:59:44;;;;;;;6.65;3.33;;;;;;;17.71;43.03;101354.94;4173081;28;20668;-44
2021/05/27 01:01:45;;;;;;;7.10;3.75;;;;;;;17.82;43.03;101362.25;4173445;28;20056;-44
2021/05/27 01:03:45;;;;;;;6.82;3.63;;;;;;;17.91;42.57;101370.13;4175621;28;20422;-47
2021/05/27 01:05:46;;;;;;;10.13;3.78;;;;;;;17.56;43.09;101363.88;4172513;28;21320;-45
2021/05/27 01:07:46;;;;;;;7.97;3.55;;;;;;;17.67;42.83;101359.28;4173834;28;20025;-44
2021/05/27 01:09:47;;;;;;;10.48;4.07;;;;;;;17.62;43.10;101368.38;4175215;28;20916;-44
2021/05/27 01:11:47;;;;;;;9.10;3.90;;;;;;;17.58;43.41;101356.16;4174579;28;20507;-43
2021/05/27 01:13:48;;;;;;;10.55;3.70;;;;;;;17.61;42.97;101363.97;4177157;28;20036;-43
2021/05/27 01:15:48;;;;;;;5.88;2.92;;;;;;;17.81;42.65;101368.03;4174135;28;20025;-43
2021/05/27 01:17:49;;;;;;;11.07;4.10;;;;;;;18.00;42.28;101374.09;4170966;28;20344;-42
2021/05/27 01:19:54;;;;;;;5.90;3.30;;;;;;;17.85;42.86;101382.22;4175601;28;20090;-43
2021/05/27 01:21:54;;;;;;;10.68;3.55;;;;;;;17.63;43.13;101367.28;4173908;28;20434;-43
2021/05/27 01:23:55;;;;;;;6.47;3.17;;;;;;;17.65;43.04;101367.03;4173259;28;20119;-43
2021/05/27 01:25:56;;;;;;;8.27;3.25;;;;;;;17.52;43.17;101371.03;4174765;28;20094;-45
2021/05/27 01:27:57;;;;;;;8.20;3.90;;;;;;;17.57;43.05;101375.81;4172338;28;20052;-45
2021/05/27 01:29:57;;;;;;;7.30;3.67;;;;;;;17.48;43.05;101382.84;4171517;28;20376;-44
2021/05/27 01:31:58;;;;;;;7.70;3.75;;;;;;;17.38;43.60;101381.63;4173179;28;20367;-45
2021/05/27 01:33:58;;;;;;;8.10;3.95;;;;;;;17.42;43.21;101382.75;4172202;28;20094;-43
2021/05/27 01:36:00;;;;;;;8.05;3.50;;;;;;;17.58;43.04;101385.75;4173462;28;20028;-44
2021/05/27 01:38:11;;;;;;;7.38;3.72;;;;;;;17.41;43.32;101381.09;4171316;28;20056;-43
2021/05/27 01:40:12;;;;;;;;;;;;;;;17.63;42.85;101385.84;4171022;28;20045;-44
2021/05/27 01:42:14;;;;;;;9.57;3.90;;;;;;;17.53;42.86;101396.78;4173338;28;20373;-43
2021/05/27 01:44:14;;;;;;;7.03;3.60;;;;;;;17.56;42.97;101387.94;4174184;28;20021;-43
2021/05/27 01:46:15;;;;;;;9.70;3.78;;;;;;;17.30;43.32;101387.56;4172306;28;20065;-43
2021/05/27 01:48:16;;;;;;;6.35;3.35;;;;;;;17.44;43.02;101388.88;4172313;28;20511;-43
2021/05/27 01:50:20;;;;;;;9.20;3.53;;;;;;;17.50;43.01;101380.69;4171441;28;20442;-43
2021/05/27 01:52:21;;;;;;;7.68;3.50;;;;;;;17.55;42.97;101400.09;4175100;28;20039;-43
2021/05/27 01:54:21;;;;;;;6.85;3.60;;;;;;;17.35;43.24;101390.44;4174793;28;20033;-43
2021/05/27 01:56:21;;;;;;;7.38;3.92;;;;;;;17.36;42.99;101397.63;4172356;28;20608;-45
2021/05/27 01:58:22;;;;;;;6.35;3.63;;;;;;;17.59;42.42;101392.97;4174080;28;21036;-47
2021/05/27 02:00:27;;;;;;;9.52;4.63;;;;;;;17.40;43.31;101404.31;4173979;28;20036;-44
2021/05/27 02:02:27;;;;;;;8.43;4.05;;;;;;;17.32;42.99;101393.69;4172192;28;20566;-44
2021/05/27 02:04:28;;;;;;;9.57;3.92;;;;;;;17.29;43.39;101396.97;4173307;28;20036;-46
2021/05/27 02:06:29;;;;;;;6.18;3.40;;;;;;;17.32;43.02;101396.47;4171818;28;20422;-45
2021/05/27 02:08:29;;;;;;;10.63;3.60;;;;;;;17.26;42.80;101375.34;4173513;28;20842;-45
2021/05/27 02:10:30;;;;;;;6.13;3.60;;;;;;;17.13;43.46;101398.66;4172971;28;20090;-44
2021/05/27 02:12:30;;;;;;;9.50;4.45;;;;;;;16.99;43.77;101398.22;4173378;28;20051;-46
2021/05/27 02:14:31;;;;;;;6.88;3.67;;;;;;;16.90;43.76;101395.03;4173608;28;20465;-44
2021/05/27 02:16:32;;;;;;;8.02;3.47;;;;;;;17.33;43.08;101391.75;4171640;28;20041;-43
2021/05/27 02:18:32;;;;;;;9.82;3.78;;;;;;;17.20;43.42;101396.56;4174926;28;20083;-43
2021/05/27 02:20:33;;;;;;;6.63;3.60;;;;;;;17.14;43.43;101396.75;4172794;28;20040;-46
2021/05/27 02:22:34;;;;;;;7.35;3.38;;;;;;;17.04;43.05;101384.44;4170709;28;20065;-44
2021/05/27 02:24:34;;;;;;;7.70;3.22;;;;;;;17.29;42.94;101397.81;4174197;28;20037;-44
2021/05/27 02:26:34;;;;;;;8.98;3.33;;;;;;;17.35;42.95;101400.63;4171932;28;20033;-45
2021/05/27 02:28:35;;;;;;;6.65;3.10;;;;;;;17.20;42.90;101404.03;4169800;28;20467;-44
2021/05/27 02:30:35;;;;;;;10.98;3.80;;;;;;;17.26;42.83;101409.38;4175928;28;20044;-44
2021/05/27 02:32:36;;;;;;;9.55;3.35;;;;;;;17.08;43.32;101407.72;4170631;28;20056;-44
2021/05/27 02:34:36;;;;;;;7.10;3.42;;;;;;;17.45;42.59;101412.69;4174456;28;20107;-43
2021/05/27 02:36:37;;;;;;;7.75;3.47;;;;;;;17.16;43.20;101413.94;4171786;28;20534;-44
2021/05/27 02:38:38;;;;;;;8.30;3.58;;;;;;;17.26;42.75;101405.78;4172190;28;20048;-44
2021/05/27 02:40:38;;;;;;;7.40;2.80;;;;;;;17.21;43.12;101402.91;4174209;28;20448;-44
2021/05/27 02:42:38;;;;;;;8.35;3.60;;;;;;;17.41;42.39;101410.69;4172624;28;20044;-44
2021/05/27 02:44:39;;;;;;;6.03;2.90;;;;;;;17.59;41.96;101404.88;4174971;28;20029;-43
2021/05/27 02:46:39;;;;;;;5.28;3.05;;;;;;;17.49;42.39;101410.28;4172649;28;20461;-43
2021/05/27 02:48:40;;;;;;;7.22;3.63;;;;;;;17.30;42.75;101412.47;4171601;28;20509;-45
2021/05/27 02:50:41;;;;;;;6.82;3.00;;;;;;;17.56;42.09;101407.34;4173275;28;20040;-43
2021/05/27 02:52:41;;;;;;;6.80;3.72;;;;;;;17.47;42.42;101409.66;4170109;28;20044;-44
2021/05/27 02:54:41;;;;;;;8.10;3.28;;;;;;;17.38;42.75;101412.06;4169252;28;20116;-45
2021/05/27 02:56:42;;;;;;;7.05;3.00;;;;;;;17.26;42.49;101405.78;4173468;28;20493;-44
2021/05/27 02:58:44;;;;;;;6.57;3.50;;;;;;;17.26;42.83;101416.84;4170642;28;20167;-45
2021/05/27 03:00:44;;;;;;;7.95;3.28;;;;;;;17.46;42.24;101414.38;4172749;28;20033;-45
2021/05/27 03:02:45;;;;;;;8.48;3.00;;;;;;;17.54;42.11;101412.28;4172817;28;20506;-45
2021/05/27 03:04:45;;;;;;;4.78;2.70;;;;;;;17.35;42.55;101401.50;4170568;28;20037;-44
2021/05/27 03:06:47;;;;;;;7.53;3.22;;;;;;;17.22;42.69;101410.97;4174304;28;20040;-44
2021/05/27 03:08:47;;;;;;;6.50;3.45;;;;;;;17.63;41.99;101414.34;4169096;28;20064;-45
2021/05/27 03:10:48;;;;;;;6.13;3.85;;;;;;;17.38;42.44;101412.06;4169551;28;20388;-45
2021/05/27 03:12:48;;;;;;;6.78;3.50;;;;;;;17.55;42.21;101416.72;4177362;28;20756;-45
2021/05/27 03:14:48;;;;;;;6.78;2.88;;;;;;;17.31;42.46;101413.31;4175316;28;20029;-46
2021/05/27 03:16:49;;;;;;;5.25;2.83;;;;;;;17.35;42.57;101411.69;4177032;28;20053;-45
2021/05/27 03:18:51;;;;;;;8.13;3.03;;;;;;;17.08;42.59;101384.75;4176044;28;20040;-45
2021/05/27 03:20:51;;;;;;;8.20;3.20;;;;;;;17.56;41.92;101412.88;4177972;28;20086;-45
2021/05/27 03:22:51;;;;;;;6.38;2.83;;;;;;;17.32;42.50;101420.50;4175639;28;20036;-45
2021/05/27 03:24:52;;;;;;;8.50;3.35;;;;;;;17.45;42.14;101415.44;4175197;28;20061;-46
2021/05/27 03:26:53;;;;;;;5.50;3.08;;;;;;;17.53;42.12;101410.63;4173300;28;20039;-44
2021/05/27 03:28:53;;;;;;;5.82;2.90;;;;;;;17.33;42.64;101417.50;4174252;28;20048;-45
2021/05/27 03:30:54;;;;;;;7.75;3.22;;;;;;;17.17;42.80;101413.66;4175759;28;20064;-45
2021/05/27 03:32:55;;;;;;;6.80;3.17;;;;;;;17.21;42.64;101422.28;4175523;28;20754;-45
2021/05/27 03:34:55;;;;;;;7.57;3.25;;;;;;;17.09;42.84;101416.88;4176353;28;20032;-45
2021/05/27 03:36:55;;;;;;;7.15;2.85;;;;;;;17.17;42.63;101423.91;4179382;28;20036;-45
2021/05/27 03:38:56;;;;;;;6.03;3.40;;;;;;;17.01;43.02;101423.66;4175782;28;20044;-47
2021/05/27 03:40:56;;;;;;;9.32;3.40;;;;;;;17.15;42.88;101424.16;4172058;28;20440;-45
2021/05/27 03:42:57;;;;;;;7.07;3.83;;;;;;;16.93;43.06;101410.28;4176738;28;20037;-46
2021/05/27 03:44:57;;;;;;;6.60;2.83;;;;;;;17.13;42.63;101422.72;4174633;28;20071;-47
2021/05/27 03:46:58;;;;;;;5.72;2.83;;;;;;;17.16;42.80;101420.28;4174759;28;20220;-48
2021/05/27 03:48:58;;;;;;;6.75;2.95;;;;;;;17.26;42.69;101430.69;4174118;28;20044;-45
2021/05/27 03:50:59;;;;;;;7.47;3.35;;;;;;;17.19;42.52;101410.66;4174363;28;20048;-45
2021/05/27 03:53:00;;;;;;;7.40;3.03;;;;;;;17.05;43.05;101422.09;4159384;28;20037;-45
2021/05/27 03:55:00;;;;;;;6.32;3.53;;;;;;;17.24;42.60;101422.63;4175238;28;20041;-45
2021/05/27 03:57:01;;;;;;;8.88;3.25;;;;;;;17.14;42.86;101422.47;4170545;28;20116;-43
2021/05/27 04:01:21;;;;;;;5.15;2.72;;;;;;;16.90;43.28;101421.84;4173931;28;20133;-45
2021/05/27 04:03:22;;;;;;;7.55;3.63;;;;;;;17.20;42.48;101412.34;4174915;28;20435;-44
2021/05/27 04:07:42;;;;;;;5.45;3.15;;;;;;;16.95;43.21;101427.44;4177536;28;20781;-44
2021/05/27 04:09:43;;;;;;;9.93;3.92;;;;;;;17.17;42.59;101426.69;4190802;28;20371;-44
2021/05/27 04:11:43;;;;;;;6.72;3.28;;;;;;;16.93;43.35;101421.34;4176675;28;20033;-47
2021/05/27 04:13:44;;;;;;;6.78;3.28;;;;;;;17.16;42.11;101427.75;4177817;28;20036;-45
2021/05/27 04:15:44;;;;;;;8.35;3.67;;;;;;;17.24;42.29;101424.53;4176655;28;20063;-46
2021/05/27 04:17:45;;;;;;;6.75;3.40;;;;;;;17.41;42.07;101428.16;4175335;28;20044;-45
2021/05/27 04:19:45;;;;;;;5.75;3.20;;;;;;;17.29;42.33;101430.19;4173974;28;20029;-46
2021/05/27 04:21:46;;;;;;;6.88;3.72;;;;;;;17.18;42.56;101426.41;4172100;28;20631;-47
2021/05/27 04:23:46;;;;;;;6.97;2.83;;;;;;;17.03;42.74;101428.94;4176057;28;20032;-46
2021/05/27 04:25:46;;;;;;;5.05;3.25;;;;;;;16.81;42.70;101384.63;4171248;28;20060;-45
2021/05/27 04:27:47;;;;;;;6.60;2.92;;;;;;;17.24;42.34;101430.09;4170971;28;20033;-44
2021/05/27 04:29:48;;;;;;;9.68;3.67;;;;;;;17.18;42.62;101440.25;4170814;28;20029;-44
2021/05/27 04:31:48;;;;;;;6.40;2.65;;;;;;;17.29;42.09;101433.78;4174618;28;20037;-44
2021/05/27 04:33:54;;;;;;;6.88;3.08;;;;;;;17.30;42.10;101434.59;4174756;28;20037;-44
2021/05/27 04:35:54;;;;;;;6.68;3.25;;;;;;;17.21;42.25;101436.13;4174670;28;20475;-45
2021/05/27 04:38:00;;;;;;;5.75;3.00;;;;;;;17.23;42.46;101439.50;4173716;28;20037;-43
2021/05/27 04:40:00;;;;;;;7.35;3.30;;;;;;;17.40;41.94;101439.47;4181682;28;20044;-47
2021/05/27 04:42:01;;;;;;;6.30;3.08;;;;;;;16.80;42.54;101394.84;4173520;28;20041;-45
2021/05/27 04:44:01;;;;;;;8.13;3.38;;;;;;;17.10;42.50;101444.28;4173819;28;20091;-46
2021/05/27 04:46:03;;;;;;;8.18;3.10;;;;;;;16.90;42.79;101433.72;4175158;28;20111;-44
2021/05/27 04:48:04;;;;;;;5.60;3.22;;;;;;;17.25;42.35;101442.84;4174513;28;20033;-46
2021/05/27 04:50:07;;;;;;;8.73;3.45;;;;;;;17.20;42.36;101445.53;4172996;28;20032;-46
2021/05/27 04:52:07;;;;;;;4.40;2.72;;;;;;;17.09;42.69;101448.13;4175249;28;20558;-47
2021/05/27 04:54:08;;;;;;;4.82;2.88;;;;;;;16.88;42.95;101438.69;4174105;28;20091;-45
2021/05/27 04:56:08;;;;;;;5.88;3.10;;;;;;;17.05;42.74;101452.50;4179535;28;20031;-45
2021/05/27 04:58:09;;;;;;;7.93;3.72;;;;;;;17.13;42.54;101450.38;4173703;28;20037;-46
2021/05/27 05:00:13;;;;;;;8.18;4.13;;;;;;;16.91;42.44;101427.13;4172518;28;20031;-45
2021/05/27 05:02:13;;;;;;;5.18;3.22;;;;;;;17.18;42.30;101450.47;4177788;28;20028;-46
2021/05/27 05:04:13;;;;;;;7.03;3.08;;;;;;;17.21;42.21;101449.97;4175086;28;20048;-44
2021/05/27 05:06:14;;;;;;;8.13;3.50;;;;;;;16.95;42.90;101457.03;4173750;28;20037;-45
2021/05/27 05:08:14;;;;;;;7.57;3.63;;;;;;;16.93;42.77;101454.53;4173936;28;20387;-45
2021/05/27 05:10:16;;;;;;;9.85;3.17;;;;;;;17.06;42.45;101469.94;4174247;28;20030;-44
2021/05/27 05:12:17;;;;;;;7.00;3.47;;;;;;;16.85;42.95;101466.84;4181552;28;20121;-43
2021/05/27 05:14:17;;;;;;;7.85;3.13;;;;;;;17.12;42.62;101468.94;4175099;28;20033;-44
2021/05/27 05:16:18;;;;;;;5.28;2.85;;;;;;;17.18;42.36;101464.28;4174620;28;20036;-44
2021/05/27 05:18:18;;;;;;;7.60;3.58;;;;;;;17.05;42.20;101469.09;4174139;28;20025;-45
2021/05/27 05:20:21;;;;;;;6.13;3.30;;;;;;;17.00;42.53;101466.22;4172205;28;20060;-44
2021/05/27 05:22:22;;;;;;;8.25;3.22;;;;;;;17.08;42.50;101467.75;4176518;28;20559;-45
2021/05/27 05:24:22;;;;;;;8.20;2.70;;;;;;;17.23;42.20;101470.75;4174872;28;20032;-47
2021/05/27 05:26:23;;;;;;;7.65;3.00;;;;;;;16.95;42.38;101468.91;4173683;28;20488;-44
2021/05/27 05:28:23;;;;;;;4.57;2.47;;;;;;;17.08;42.42;101474.09;4181866;28;20040;-44
2021/05/27 05:30:26;;;;;;;5.82;3.20;;;;;;;17.18;42.11;101472.59;4176293;28;20029;-45
2021/05/27 05:32:26;;;;;;;4.18;3.10;;;;;;;17.22;42.43;101480.13;4174904;28;20448;-44
2021/05/27 05:34:27;;;;;;;7.82;2.92;;;;;;;17.12;42.25;101480.00;4173748;28;20064;-44
2021/05/27 05:36:27;;;;;;;7.70;2.92;;;;;;;17.21;42.27;101481.25;4170924;28;20040;-46
2021/05/27 05:38:28;;;;;;;8.27;2.92;;;;;;;17.27;42.07;101480.22;4166166;28;20399;-47
2021/05/27 05:40:29;;;;;;;5.20;2.50;;;;;;;17.28;41.85;101478.28;4173939;28;20037;-44
2021/05/27 05:42:29;;;;;;;6.57;3.00;;;;;;;16.97;42.61;101477.78;4174195;28;20039;-44
2021/05/27 05:44:30;;;;;;;5.90;2.67;;;;;;;17.21;42.17;101480.38;4176542;28;20144;-44
2021/05/27 05:46:30;;;;;;;8.15;3.13;;;;;;;17.20;42.03;101484.25;4174302;28;20032;-47
2021/05/27 05:48:31;;;;;;;3.85;2.67;;;;;;;17.10;42.28;101474.72;4168818;28;20060;-44
2021/05/27 05:50:50;;;;;;;8.45;3.05;;;;;;;17.22;41.94;101480.13;4174413;28;20033;-44
2021/05/27 05:52:50;;;;;;;5.78;2.75;;;;;;;16.99;42.36;101486.69;4172800;28;20041;-44
2021/05/27 05:54:51;;;;;;;6.65;3.75;;;;;;;16.96;42.52;101487.19;4179150;28;20036;-44
2021/05/27 05:56:51;;;;;;;5.55;2.72;;;;;;;16.96;42.82;101491.88;4175412;28;20033;-43
2021/05/27 05:58:52;;;;;;;6.65;2.85;;;;;;;17.16;42.33;101485.84;4176521;28;20445;-43
2021/05/27 06:00:53;;;;;;;6.40;2.85;;;;;;;17.32;41.63;101484.16;4179256;28;20338;-44
2021/05/27 06:02:54;;;;;;;6.30;2.85;;;;;;;17.29;41.75;101491.06;4175142;28;20576;-44
2021/05/27 06:04:54;;;;;;;4.85;3.00;;;;;;;17.13;42.07;101489.94;4173552;28;20037;-44
2021/05/27 06:06:55;;;;;;;6.32;2.78;;;;;;;17.13;42.35;101501.00;4172383;28;20114;-45
2021/05/27 06:08:57;;;;;;;8.85;3.00;;;;;;;17.17;42.06;101504.13;4172053;28;20029;-45
2021/05/27 06:10:57;;;;;;;6.70;2.58;;;;;;;16.90;42.63;101502.84;4177143;28;20079;-44
2021/05/27 06:12:58;;;;;;;5.65;2.75;;;;;;;16.92;42.58;101491.53;4174038;28;20032;-43
2021/05/27 06:14:58;;;;;;;7.80;3.10;;;;;;;16.95;42.55;101495.75;4170946;28;20129;-44
2021/05/27 06:16:59;;;;;;;6.25;3.17;;;;;;;17.11;42.29;101501.25;4180414;28;20499;-46
2021/05/27 06:18:59;;;;;;;7.65;3.30;;;;;;;17.04;42.40;101503.38;4173866;28;20041;-44
2021/05/27 06:21:00;;;;;;;8.88;3.08;;;;;;;17.01;42.38;101501.09;4158641;28;20479;-44
2021/05/27 06:23:00;;;;;;;7.63;2.95;;;;;;;16.92;42.63;101505.38;4172981;28;20729;-43
2021/05/27 06:25:01;;;;;;;9.77;3.10;;;;;;;16.99;42.68;101514.34;4170734;28;20052;-43
2021/05/27 06:27:01;;;;;;;6.50;2.88;;;;;;;17.11;41.99;101517.03;4168243;28;20500;-43
2021/05/27 06:29:02;;;;;;;7.60;2.92;;;;;;;16.97;42.50;101518.44;4169427;28;20041;-44
2021/05/27 06:31:03;;;;;;;6.60;3.03;;;;;;;17.22;41.92;101512.50;4170871;28;20064;-43
2021/05/27 06:33:07;;;;;;;6.88;2.60;;;;;;;17.05;42.37;101518.88;4169232;28;20384;-43
2021/05/27 06:35:10;;;;;;;6.70;2.55;;;;;;;16.88;42.66;101518.00;4171419;28;20033;-43
2021/05/27 06:37:11;;;;;;;5.93;3.08;;;;;;;16.98;42.42;101509.06;4181757;28;20037;-44
2021/05/27 06:39:11;;;;;;;5.55;2.80;;;;;;;17.01;42.49;101522.41;4170821;28;20072;-45
2021/05/27 06:41:11;;;;;;;7.78;3.00;;;;;;;17.02;42.14;101513.84;4173723;28;20033;-46
2021/05/27 06:43:12;;;;;;;7.97;2.80;;;;;;;17.13;42.32;101522.31;4173097;28;20086;-44
2021/05/27 06:45:14;;;;;;;6.90;2.75;;;;;;;17.14;41.74;101538.66;4173301;28;20395;-46
2021/05/27 06:47:14;;;;;;;7.25;3.20;;;;;;;16.87;42.19;101497.81;4171567;28;20033;-45
2021/05/27 06:49:15;;;;;;;7.30;3.03;;;;;;;17.16;41.96;101538.41;4173686;28;20027;-45
2021/05/27 06:51:16;;;;;;;6.45;3.25;;;;;;;16.92;42.38;101535.78;4171600;28;20383;-44
2021/05/27 06:53:17;;;;;;;5.30;3.03;;;;;;;17.11;41.83;101537.22;4178568;28;20438;-46
2021/05/27 06:55:17;;;;;;;8.05;3.25;;;;;;;17.02;41.70;101505.56;4171143;28;20035;-45
2021/05/27 06:57:18;;;;;;;10.50;3.38;;;;;;;17.11;42.07;101544.69;4171728;28;20028;-46
2021/05/27 06:59:19;;;;;;;5.43;3.00;;;;;;;17.17;41.92;101542.88;4169453;28;20036;-42
2021/05/27 07:01:19;;;;;;;6.95;3.17;;;;;;;17.18;42.10;101533.44;4168538;28;20048;-41
2021/05/27 07:03:21;;;;;;;6.57;3.17;;;;;;;17.09;42.15;101547.72;4177440;28;20047;-42
2021/05/27 07:05:22;;;;;;;13.07;3.33;;;;;;;17.16;42.44;101552.25;4171403;28;20048;-42
2021/05/27 07:07:24;;;;;;;8.45;2.58;;;;;;;17.17;42.49;101543.69;4170431;28;20052;-42
2021/05/27 07:09:25;;;;;;;13.95;2.88;;;;;;;17.20;42.64;101547.91;4171521;28;20037;-41
2021/05/27 07:11:25;;;;;;;5.90;2.97;;;;;;;17.34;42.28;101554.75;4171950;28;20368;-41
2021/05/27 07:13:26;;;;;;;8.07;2.78;;;;;;;17.26;42.26;101556.03;4169776;28;20090;-42
2021/05/27 07:15:27;;;;;;;13.45;3.38;;;;;;;17.21;42.96;101555.09;4168157;28;20392;-41
2021/05/27 07:17:27;;;;;;;24.67;3.08;;;;;;;17.41;42.61;101554.59;4169602;28;20135;-41
2021/05/27 07:19:27;;;;;;;12.32;2.92;;;;;;;17.36;42.40;101569.19;4174246;28;20052;-41
2021/05/27 07:21:28;;;;;;;7.45;3.63;;;;;;;17.25;42.53;101551.56;4172045;28;20358;-42
2021/05/27 07:23:29;;;;;;;8.73;3.10;;;;;;;17.31;42.55;101569.09;4172309;28;20029;-42
2021/05/27 07:25:31;;;;;;;8.13;2.92;;;;;;;17.32;42.85;101556.97;4172675;28;20032;-42
2021/05/27 07:27:31;;;;;;;8.45;3.47;;;;;;;17.25;42.94;101570.09;4174565;28;20049;-42
2021/05/27 07:29:32;;;;;;;8.05;2.83;;;;;;;17.35;42.76;101570.28;4173749;28;20067;-42
2021/05/27 07:31:33;;;;;;;7.63;2.85;;;;;;;17.21;42.23;101532.94;4173284;28;20036;-42
2021/05/27 07:33:33;;;;;;;6.35;3.33;;;;;;;17.29;42.50;101580.41;4171228;28;20056;-40
2021/05/27 07:35:34;;;;;;;6.13;2.60;;;;;;;17.25;42.24;101572.88;4178641;28;20124;-41
2021/05/27 07:37:34;;;;;;;7.00;2.35;;;;;;;17.36;42.55;101585.78;4159543;28;20114;-42
2021/05/27 07:39:35;;;;;;;4.05;2.72;;;;;;;17.26;42.24;101580.09;4172008;28;20417;-41
2021/05/27 07:41:35;;;;;;;4.85;2.58;;;;;;;17.20;42.11;101575.56;4174220;28;20491;-41
2021/05/27 07:43:36;;;;;;;4.43;2.30;;;;;;;17.18;42.58;101591.53;4170627;28;20043;-41
2021/05/27 07:45:36;;;;;;;5.65;2.63;;;;;;;17.10;42.29;101571.53;4170395;28;20033;-41
2021/05/27 07:47:37;;;;;;;5.47;2.85;;;;;;;17.27;42.18;101592.81;4171964;28;20060;-42
2021/05/27 07:49:37;;;;;;;7.57;2.60;;;;;;;17.28;41.90;101586.19;4170996;28;20040;-41
2021/05/27 07:51:37;;;;;;;7.50;2.88;;;;;;;17.17;42.21;101578.81;4169515;28;20044;-42
2021/05/27 07:53:38;;;;;;;7.57;3.03;;;;;;;17.25;41.92;101586.69;4173362;28;20032;-41
2021/05/27 07:55:39;;;;;;;5.47;2.83;;;;;;;17.21;42.49;101591.91;4172595;28;20033;-42
2021/05/27 07:57:39;;;;;;;6.47;2.75;;;;;;;17.31;41.79;101593.19;4170887;28;20075;-41
2021/05/27 07:59:40;;;;;;;6.75;3.13;;;;;;;17.38;41.86;101594.69;4175625;28;20106;-41
2021/05/27 08:01:42;;;;;;;5.47;3.10;;;;;;;17.08;41.83;101554.31;4176441;28;20036;-42
2021/05/27 08:03:42;;;;;;;7.15;3.20;;;;;;;17.34;41.77;101592.69;4177466;28;20044;-41
2021/05/27 08:05:42;;;;;;;6.63;3.20;;;;;;;17.38;41.54;101600.22;4176592;28;20065;-42
2021/05/27 08:07:48;;;;;;;5.25;2.55;;;;;;;17.25;41.99;101595.00;4175648;28;20020;-41
2021/05/27 08:09:49;;;;;;;6.07;3.00;;;;;;;17.25;41.45;101584.75;4177206;28;20508;-41
2021/05/27 08:11:49;;;;;;;6.45;2.67;;;;;;;17.33;41.61;101599.28;4176894;28;20037;-41
2021/05/27 08:13:50;;;;;;;6.07;2.65;;;;;;;17.34;41.61;101603.75;4155412;28;20033;-41
2021/05/27 08:15:50;;;;;;;6.90;2.97;;;;;;;17.38;41.48;101605.75;4177282;28;20040;-41
2021/05/27 08:17:51;;;;;;;6.78;2.90;;;;;;;17.48;41.46;101602.31;4175141;28;20337;-41
2021/05/27 08:19:51;;;;;;;4.93;2.85;;;;;;;17.31;41.88;101609.78;4178446;28;20037;-41
2021/05/27 08:21:52;;;;;;;5.13;3.00;;;;;;;17.24;41.96;101613.53;4175248;28;20309;-41
2021/05/27 08:23:53;;;;;;;4.68;2.60;;;;;;;17.23;41.96;101619.31;4177027;28;20078;-42
2021/05/27 08:25:53;;;;;;;6.43;3.40;;;;;;;17.14;41.54;101576.56;4170494;28;20041;-41
2021/05/27 08:27:55;;;;;;;6.82;2.95;;;;;;;17.09;41.99;101591.97;4172649;28;20032;-41
2021/05/27 08:29:56;;;;;;;6.63;2.83;;;;;;;17.37;41.45;101625.38;4171329;28;20033;-41
2021/05/27 08:31:56;;;;;;;6.65;3.20;;;;;;;17.39;41.43;101618.50;4173098;28;20029;-41
2021/05/27 08:33:57;;;;;;;7.80;3.22;;;;;;;17.38;41.64;101611.28;4172143;28;20041;-41
2021/05/27 08:35:57;;;;;;;6.78;3.10;;;;;;;17.29;41.73;101624.69;4172807;28;20495;-42
2021/05/27 08:37:57;;;;;;;6.90;2.95;;;;;;;17.29;41.63;101626.63;4171463;28;20037;-42
2021/05/27 08:39:58;;;;;;;8.07;3.60;;;;;;;17.36;41.49;101621.75;4172548;28;20056;-42
2021/05/27 08:42:00;;;;;;;6.93;3.22;;;;;;;17.40;41.50;101625.72;4176442;28;20368;-42
2021/05/27 08:44:03;;;;;;;9.63;3.78;;;;;;;17.41;41.71;101630.16;4170271;28;20036;-42
2021/05/27 08:46:05;;;;;;;8.75;3.55;;;;;;;17.38;44.07;101627.91;4172051;28;20356;-42
2021/05/27 08:48:06;;;;;;;14.02;4.35;;;;;;;17.40;43.89;101635.94;4169976;28;20103;-42
2021/05/27 08:50:08;;;;;;;16.65;3.95;;;;;;;17.45;45.28;101628.56;4175006;28;20101;-46
2021/05/27 08:52:09;;;;;;;22.67;5.32;;;;;;;17.44;45.66;101626.03;4175684;28;20043;-42
2021/05/27 08:54:09;;;;;;;26.23;4.93;;;;;;;17.52;45.37;101636.75;4175748;28;20033;-42
2021/05/27 08:56:11;;;;;;;15.77;4.43;;;;;;;17.52;45.09;101633.13;4176651;28;20148;-42
2021/05/27 08:58:14;;;;;;;19.80;4.07;;;;;;;17.60;44.05;101629.97;4173448;28;20482;-42
2021/05/27 09:00:15;;;;;;;20.33;3.90;;;;;;;17.52;44.23;101624.81;4174084;28;20518;-42
2021/05/27 09:02:16;;;;;;;20.02;4.38;;;;;;;17.56;44.63;101639.84;4172971;28;20037;-42
2021/05/27 09:04:23;;;;;;;17.58;4.55;;;;;;;17.68;43.72;101648.09;4171039;28;20029;-43
2021/05/27 09:06:23;;;;;;;18.90;4.03;;;;;;;17.62;44.29;101644.38;4170916;28;20029;-42
2021/05/27 09:08:29;;;;;;;13.48;3.90;;;;;;;17.62;44.29;101647.16;4174441;28;20077;-41
2021/05/27 09:10:48;;;;;;;15.68;3.50;;;;;;;17.64;44.43;101654.13;4182929;28;20032;-42
2021/05/27 09:12:49;;;;;;;19.65;3.58;;;;;;;17.69;44.00;101650.59;4173057;28;20043;-42
2021/05/27 09:14:49;;;;;;;16.48;4.07;;;;;;;17.68;44.24;101661.94;4166898;28;20413;-42
2021/05/27 09:17:00;;;;;;;11.73;4.20;;;;;;;17.75;43.97;101660.69;4149999;28;20093;-42
2021/05/27 09:19:15;;;;;;;;;;;;;;;17.74;43.88;101658.97;4176089;28;20048;-41
2021/05/27 09:21:17;;;;;;;14.27;4.00;;;;;;;17.72;43.82;101666.72;4174348;28;19923;-41
2021/05/27 09:23:21;;;;;;;13.40;3.92;;;;;;;17.77;43.87;101663.19;4173697;28;20111;-41
2021/05/27 09:25:28;;;;;;;11.07;4.03;;;;;;;17.73;43.91;101657.28;4170856;28;20032;-43
2021/05/27 09:27:46;;;;;;;11.88;4.32;;;;;;;17.75;44.10;101668.13;4173892;28;20088;-42